sensor_id;sensor_type;location;lat;lon;timestamp;P1;durP1;ratioP1;P2;durP2;ratioP2
3667;SDS011;24099;47.102;15.440;2022-10-12T00:01:55;2.35;;;1.67;;
3667;SDS011;24099;47.102;15.440;2022-10-12T00:04:22;1.10;;;1.08;;
3667;SDS011;24099;47.102;15.440;2022-10-12T00:06:51;6.40;;;2.53;;
3667;SDS011;24099;47.102;15.440;2022-10-12T00:09:18;2.25;;;1.42;;
3667;SDS011;24099;47.102;15.440;2022-10-12T00:11:46;1.58;;;1.48;;
3667;SDS011;24099;47.102;15.440;2022-10-12T00:14:14;2.75;;;1.77;;
3667;SDS011;24099;47.102;15.440;2022-10-12T00:16:41;2.88;;;2.10;;
3667;SDS011;24099;47.102;15.440;2022-10-12T00:19:10;1.30;;;1.20;;
3667;SDS011;24099;47.102;15.440;2022-10-12T00:21:39;4.15;;;2.05;;
3667;SDS011;24099;47.102;15.440;2022-10-12T00:24:07;3.08;;;1.95;;
3667;SDS011;24099;47.102;15.440;2022-10-12T00:26:35;2.47;;;1.73;;
3667;SDS011;24099;47.102;15.440;2022-10-12T00:29:03;3.42;;;1.90;;
3667;SDS011;24099;47.102;15.440;2022-10-12T00:31:30;5.72;;;1.63;;
3667;SDS011;24099;47.102;15.440;2022-10-12T00:33:58;3.78;;;1.85;;
3667;SDS011;24099;47.102;15.440;2022-10-12T00:36:28;2.08;;;1.33;;
3667;SDS011;24099;47.102;15.440;2022-10-12T00:38:58;2.78;;;1.67;;
3667;SDS011;24099;47.102;15.440;2022-10-12T00:41:26;1.10;;;1.00;;
3667;SDS011;24099;47.102;15.440;2022-10-12T00:43:55;1.00;;;0.93;;
3667;SDS011;24099;47.102;15.440;2022-10-12T00:46:25;5.15;;;1.83;;
3667;SDS011;24099;47.102;15.440;2022-10-12T00:48:56;3.17;;;1.63;;
3667;SDS011;24099;47.102;15.440;2022-10-12T00:51:28;4.07;;;1.77;;
3667;SDS011;24099;47.102;15.440;2022-10-12T00:53:57;6.00;;;1.70;;
3667;SDS011;24099;47.102;15.440;2022-10-12T00:56:29;1.52;;;1.38;;
3667;SDS011;24099;47.102;15.440;2022-10-12T00:59:01;2.30;;;1.42;;
3667;SDS011;24099;47.102;15.440;2022-10-12T01:01:32;1.65;;;1.40;;
3667;SDS011;24099;47.102;15.440;2022-10-12T01:04:01;2.40;;;1.77;;
3667;SDS011;24099;47.102;15.440;2022-10-12T01:06:32;2.70;;;1.55;;
3667;SDS011;24099;47.102;15.440;2022-10-12T01:09:01;1.40;;;1.30;;
3667;SDS011;24099;47.102;15.440;2022-10-12T01:11:29;1.98;;;1.20;;
3667;SDS011;24099;47.102;15.440;2022-10-12T01:13:57;3.28;;;1.85;;
3667;SDS011;24099;47.102;15.440;2022-10-12T01:16:26;2.17;;;1.33;;
3667;SDS011;24099;47.102;15.440;2022-10-12T01:19:01;1.98;;;1.58;;
3667;SDS011;24099;47.102;15.440;2022-10-12T01:21:45;2.85;;;1.80;;
3667;SDS011;24099;47.102;15.440;2022-10-12T01:24:25;1.70;;;1.60;;
3667;SDS011;24099;47.102;15.440;2022-10-12T01:27:15;1.70;;;1.50;;
3667;SDS011;24099;47.102;15.440;2022-10-12T01:30:10;1.50;;;1.35;;
3667;SDS011;24099;47.102;15.440;2022-10-12T01:35:45;8.57;;;1.67;;
3667;SDS011;24099;47.102;15.440;2022-10-12T01:38:27;4.93;;;1.75;;
3667;SDS011;24099;47.102;15.440;2022-10-12T01:41:02;1.75;;;1.38;;
3667;SDS011;24099;47.102;15.440;2022-10-12T01:43:37;3.00;;;1.63;;
3667;SDS011;24099;47.102;15.440;2022-10-12T01:49:09;3.45;;;1.70;;
3667;SDS011;24099;47.102;15.440;2022-10-12T01:51:45;2.30;;;1.75;;
3667;SDS011;24099;47.102;15.440;2022-10-12T01:54:32;1.75;;;1.30;;
3667;SDS011;24099;47.102;15.440;2022-10-12T01:57:10;1.45;;;1.35;;
3667;SDS011;24099;47.102;15.440;2022-10-12T01:59:48;1.83;;;1.40;;
3667;SDS011;24099;47.102;15.440;2022-10-12T02:02:27;2.33;;;1.83;;
3667;SDS011;24099;47.102;15.440;2022-10-12T02:05:02;2.00;;;1.75;;
3667;SDS011;24099;47.102;15.440;2022-10-12T02:07:36;2.00;;;1.85;;
3667;SDS011;24099;47.102;15.440;2022-10-12T02:10:09;1.95;;;1.58;;
3667;SDS011;24099;47.102;15.440;2022-10-12T02:12:42;2.50;;;1.92;;
3667;SDS011;24099;47.102;15.440;2022-10-12T02:15:11;2.90;;;1.77;;
3667;SDS011;24099;47.102;15.440;2022-10-12T02:17:41;3.00;;;1.63;;
3667;SDS011;24099;47.102;15.440;2022-10-12T02:20:13;2.08;;;1.83;;
3667;SDS011;24099;47.102;15.440;2022-10-12T02:22:43;1.92;;;1.73;;
3667;SDS011;24099;47.102;15.440;2022-10-12T02:25:14;3.05;;;1.88;;
3667;SDS011;24099;47.102;15.440;2022-10-12T02:27:46;1.65;;;1.55;;
3667;SDS011;24099;47.102;15.440;2022-10-12T02:30:17;1.65;;;1.52;;
3667;SDS011;24099;47.102;15.440;2022-10-12T02:32:48;2.67;;;1.92;;
3667;SDS011;24099;47.102;15.440;2022-10-12T02:35:21;3.42;;;1.73;;
3667;SDS011;24099;47.102;15.440;2022-10-12T02:37:58;4.22;;;1.10;;
3667;SDS011;24099;47.102;15.440;2022-10-12T02:40:31;5.47;;;1.88;;
3667;SDS011;24099;47.102;15.440;2022-10-12T02:43:04;1.42;;;1.33;;
3667;SDS011;24099;47.102;15.440;2022-10-12T02:45:36;2.13;;;1.88;;
3667;SDS011;24099;47.102;15.440;2022-10-12T02:48:08;2.58;;;1.50;;
3667;SDS011;24099;47.102;15.440;2022-10-12T02:50:40;2.25;;;1.42;;
3667;SDS011;24099;47.102;15.440;2022-10-12T02:53:09;3.10;;;1.45;;
3667;SDS011;24099;47.102;15.440;2022-10-12T02:55:38;2.35;;;1.75;;
3667;SDS011;24099;47.102;15.440;2022-10-12T02:58:13;2.85;;;1.77;;
3667;SDS011;24099;47.102;15.440;2022-10-12T03:00:41;18.65;;;2.10;;
3667;SDS011;24099;47.102;15.440;2022-10-12T03:03:10;2.00;;;1.67;;
3667;SDS011;24099;47.102;15.440;2022-10-12T03:05:38;2.25;;;1.50;;
3667;SDS011;24099;47.102;15.440;2022-10-12T03:08:05;2.35;;;1.42;;
3667;SDS011;24099;47.102;15.440;2022-10-12T03:10:33;2.05;;;1.85;;
3667;SDS011;24099;47.102;15.440;2022-10-12T03:13:01;3.85;;;1.55;;
3667;SDS011;24099;47.102;15.440;2022-10-12T03:15:29;3.03;;;1.65;;
3667;SDS011;24099;47.102;15.440;2022-10-12T03:17:56;3.20;;;1.67;;
3667;SDS011;24099;47.102;15.440;2022-10-12T03:20:25;2.80;;;1.52;;
3667;SDS011;24099;47.102;15.440;2022-10-12T03:22:53;1.73;;;1.60;;
3667;SDS011;24099;47.102;15.440;2022-10-12T03:25:21;6.28;;;2.20;;
3667;SDS011;24099;47.102;15.440;2022-10-12T03:27:49;4.60;;;1.73;;
3667;SDS011;24099;47.102;15.440;2022-10-12T03:30:16;2.72;;;1.80;;
3667;SDS011;24099;47.102;15.440;2022-10-12T03:32:44;1.70;;;1.52;;
3667;SDS011;24099;47.102;15.440;2022-10-12T03:35:12;3.67;;;1.98;;
3667;SDS011;24099;47.102;15.440;2022-10-12T03:37:41;2.15;;;1.63;;
3667;SDS011;24099;47.102;15.440;2022-10-12T03:40:09;8.00;;;1.48;;
3667;SDS011;24099;47.102;15.440;2022-10-12T03:42:37;1.50;;;1.27;;
3667;SDS011;24099;47.102;15.440;2022-10-12T03:45:05;6.00;;;2.25;;
3667;SDS011;24099;47.102;15.440;2022-10-12T03:47:34;6.68;;;1.65;;
3667;SDS011;24099;47.102;15.440;2022-10-12T03:50:02;2.33;;;1.60;;
3667;SDS011;24099;47.102;15.440;2022-10-12T03:52:30;2.53;;;1.73;;
3667;SDS011;24099;47.102;15.440;2022-10-12T03:54:59;1.88;;;1.50;;
3667;SDS011;24099;47.102;15.440;2022-10-12T03:57:26;1.95;;;1.20;;
3667;SDS011;24099;47.102;15.440;2022-10-12T03:59:54;2.08;;;1.60;;
3667;SDS011;24099;47.102;15.440;2022-10-12T04:02:22;1.67;;;1.35;;
3667;SDS011;24099;47.102;15.440;2022-10-12T04:04:49;2.28;;;1.58;;
3667;SDS011;24099;47.102;15.440;2022-10-12T04:07:18;3.90;;;2.28;;
3667;SDS011;24099;47.102;15.440;2022-10-12T04:09:45;3.38;;;1.92;;
3667;SDS011;24099;47.102;15.440;2022-10-12T04:12:14;5.45;;;2.50;;
3667;SDS011;24099;47.102;15.440;2022-10-12T04:14:42;2.92;;;2.08;;
3667;SDS011;24099;47.102;15.440;2022-10-12T04:17:10;4.43;;;1.88;;
3667;SDS011;24099;47.102;15.440;2022-10-12T04:19:39;2.95;;;1.83;;
3667;SDS011;24099;47.102;15.440;2022-10-12T04:22:07;2.00;;;1.65;;
3667;SDS011;24099;47.102;15.440;2022-10-12T04:24:35;3.20;;;1.80;;
3667;SDS011;24099;47.102;15.440;2022-10-12T04:27:03;2.22;;;1.75;;
3667;SDS011;24099;47.102;15.440;2022-10-12T04:29:32;4.63;;;1.52;;
3667;SDS011;24099;47.102;15.440;2022-10-12T04:32:01;2.50;;;1.48;;
3667;SDS011;24099;47.102;15.440;2022-10-12T04:34:28;2.00;;;1.80;;
3667;SDS011;24099;47.102;15.440;2022-10-12T04:36:56;6.03;;;1.73;;
3667;SDS011;24099;47.102;15.440;2022-10-12T04:39:24;2.33;;;1.70;;
3667;SDS011;24099;47.102;15.440;2022-10-12T04:41:51;3.25;;;1.42;;
3667;SDS011;24099;47.102;15.440;2022-10-12T04:44:20;3.47;;;1.13;;
3667;SDS011;24099;47.102;15.440;2022-10-12T04:46:50;3.35;;;1.38;;
3667;SDS011;24099;47.102;15.440;2022-10-12T04:49:17;2.05;;;1.55;;
3667;SDS011;24099;47.102;15.440;2022-10-12T04:51:45;8.23;;;1.30;;
3667;SDS011;24099;47.102;15.440;2022-10-12T04:54:12;3.90;;;2.03;;
3667;SDS011;24099;47.102;15.440;2022-10-12T04:56:40;3.20;;;2.08;;
3667;SDS011;24099;47.102;15.440;2022-10-12T04:59:10;1.38;;;1.25;;
3667;SDS011;24099;47.102;15.440;2022-10-12T05:01:38;2.72;;;1.65;;
3667;SDS011;24099;47.102;15.440;2022-10-12T05:04:07;2.45;;;1.55;;
3667;SDS011;24099;47.102;15.440;2022-10-12T05:06:34;1.65;;;1.55;;
3667;SDS011;24099;47.102;15.440;2022-10-12T05:09:02;2.28;;;1.38;;
3667;SDS011;24099;47.102;15.440;2022-10-12T05:11:30;1.63;;;1.40;;
3667;SDS011;24099;47.102;15.440;2022-10-12T05:13:57;1.77;;;1.20;;
3667;SDS011;24099;47.102;15.440;2022-10-12T05:16:25;1.45;;;1.35;;
3667;SDS011;24099;47.102;15.440;2022-10-12T05:18:53;2.85;;;1.70;;
3667;SDS011;24099;47.102;15.440;2022-10-12T05:21:22;3.03;;;1.52;;
3667;SDS011;24099;47.102;15.440;2022-10-12T05:23:49;4.32;;;1.80;;
3667;SDS011;24099;47.102;15.440;2022-10-12T05:26:18;2.15;;;1.70;;
3667;SDS011;24099;47.102;15.440;2022-10-12T05:28:45;1.38;;;1.23;;
3667;SDS011;24099;47.102;15.440;2022-10-12T05:31:13;1.73;;;1.63;;
3667;SDS011;24099;47.102;15.440;2022-10-12T05:33:41;2.90;;;1.90;;
3667;SDS011;24099;47.102;15.440;2022-10-12T05:36:08;4.38;;;1.67;;
3667;SDS011;24099;47.102;15.440;2022-10-12T05:38:37;2.83;;;1.83;;
3667;SDS011;24099;47.102;15.440;2022-10-12T05:41:05;4.20;;;1.80;;
3667;SDS011;24099;47.102;15.440;2022-10-12T05:43:32;1.80;;;1.70;;
3667;SDS011;24099;47.102;15.440;2022-10-12T05:46:00;1.27;;;1.17;;
3667;SDS011;24099;47.102;15.440;2022-10-12T05:48:28;1.13;;;0.95;;
3667;SDS011;24099;47.102;15.440;2022-10-12T05:50:57;2.55;;;1.67;;
3667;SDS011;24099;47.102;15.440;2022-10-12T05:53:25;3.05;;;1.77;;
3667;SDS011;24099;47.102;15.440;2022-10-12T05:55:55;1.55;;;1.27;;
3667;SDS011;24099;47.102;15.440;2022-10-12T05:58:24;5.32;;;2.33;;
3667;SDS011;24099;47.102;15.440;2022-10-12T06:00:53;2.47;;;1.92;;
3667;SDS011;24099;47.102;15.440;2022-10-12T06:03:21;2.05;;;1.85;;
3667;SDS011;24099;47.102;15.440;2022-10-12T06:05:48;2.13;;;1.92;;
3667;SDS011;24099;47.102;15.440;2022-10-12T06:08:16;3.88;;;2.45;;
3667;SDS011;24099;47.102;15.440;2022-10-12T06:10:44;2.13;;;1.85;;
3667;SDS011;24099;47.102;15.440;2022-10-12T06:13:16;3.60;;;2.08;;
3667;SDS011;24099;47.102;15.440;2022-10-12T06:15:45;4.45;;;2.17;;
3667;SDS011;24099;47.102;15.440;2022-10-12T06:18:13;5.25;;;2.50;;
3667;SDS011;24099;47.102;15.440;2022-10-12T06:20:44;2.67;;;2.17;;
3667;SDS011;24099;47.102;15.440;2022-10-12T06:23:13;3.50;;;2.20;;
3667;SDS011;24099;47.102;15.440;2022-10-12T06:25:41;2.58;;;2.05;;
3667;SDS011;24099;47.102;15.440;2022-10-12T06:28:10;3.00;;;1.98;;
3667;SDS011;24099;47.102;15.440;2022-10-12T06:30:39;2.72;;;1.88;;
3667;SDS011;24099;47.102;15.440;2022-10-12T06:33:07;6.55;;;1.95;;
3667;SDS011;24099;47.102;15.440;2022-10-12T06:35:35;3.35;;;1.95;;
3667;SDS011;24099;47.102;15.440;2022-10-12T06:38:03;2.60;;;2.40;;
3667;SDS011;24099;47.102;15.440;2022-10-12T06:40:30;2.58;;;1.67;;
3667;SDS011;24099;47.102;15.440;2022-10-12T06:42:58;2.42;;;1.92;;
3667;SDS011;24099;47.102;15.440;2022-10-12T06:45:27;2.58;;;1.90;;
3667;SDS011;24099;47.102;15.440;2022-10-12T06:47:56;3.15;;;2.03;;
3667;SDS011;24099;47.102;15.440;2022-10-12T06:50:24;3.90;;;2.42;;
3667;SDS011;24099;47.102;15.440;2022-10-12T06:52:52;4.03;;;2.95;;
3667;SDS011;24099;47.102;15.440;2022-10-12T06:55:20;3.50;;;2.88;;
3667;SDS011;24099;47.102;15.440;2022-10-12T06:57:47;3.85;;;2.80;;
3667;SDS011;24099;47.102;15.440;2022-10-12T07:00:15;8.98;;;2.70;;
3667;SDS011;24099;47.102;15.440;2022-10-12T07:02:43;4.80;;;2.60;;
3667;SDS011;24099;47.102;15.440;2022-10-12T07:05:15;4.53;;;2.50;;
3667;SDS011;24099;47.102;15.440;2022-10-12T07:07:43;3.53;;;2.17;;
3667;SDS011;24099;47.102;15.440;2022-10-12T07:10:11;3.70;;;2.03;;
3667;SDS011;24099;47.102;15.440;2022-10-12T07:12:38;3.65;;;2.00;;
3667;SDS011;24099;47.102;15.440;2022-10-12T07:15:06;3.78;;;2.22;;
3667;SDS011;24099;47.102;15.440;2022-10-12T07:17:35;3.47;;;2.47;;
3667;SDS011;24099;47.102;15.440;2022-10-12T07:20:02;3.88;;;2.33;;
3667;SDS011;24099;47.102;15.440;2022-10-12T07:22:33;4.40;;;2.55;;
3667;SDS011;24099;47.102;15.440;2022-10-12T07:25:00;3.28;;;2.50;;
3667;SDS011;24099;47.102;15.440;2022-10-12T07:27:28;6.15;;;2.63;;
3667;SDS011;24099;47.102;15.440;2022-10-12T07:29:56;3.65;;;2.13;;
3667;SDS011;24099;47.102;15.440;2022-10-12T07:32:24;3.92;;;2.17;;
3667;SDS011;24099;47.102;15.440;2022-10-12T07:34:51;5.10;;;2.05;;
3667;SDS011;24099;47.102;15.440;2022-10-12T07:37:19;5.97;;;2.38;;
3667;SDS011;24099;47.102;15.440;2022-10-12T07:39:48;2.25;;;1.95;;
3667;SDS011;24099;47.102;15.440;2022-10-12T07:42:21;3.60;;;2.10;;
3667;SDS011;24099;47.102;15.440;2022-10-12T07:44:49;3.92;;;2.55;;
3667;SDS011;24099;47.102;15.440;2022-10-12T07:47:16;4.85;;;2.50;;
3667;SDS011;24099;47.102;15.440;2022-10-12T07:49:44;4.53;;;2.83;;
3667;SDS011;24099;47.102;15.440;2022-10-12T07:52:12;4.47;;;2.75;;
3667;SDS011;24099;47.102;15.440;2022-10-12T07:54:39;4.25;;;2.95;;
3667;SDS011;24099;47.102;15.440;2022-10-12T07:57:08;5.45;;;2.88;;
3667;SDS011;24099;47.102;15.440;2022-10-12T07:59:36;4.30;;;2.63;;
3667;SDS011;24099;47.102;15.440;2022-10-12T08:02:04;6.25;;;2.85;;
3667;SDS011;24099;47.102;15.440;2022-10-12T08:04:32;5.30;;;2.78;;
3667;SDS011;24099;47.102;15.440;2022-10-12T08:06:59;9.27;;;2.40;;
3667;SDS011;24099;47.102;15.440;2022-10-12T08:09:27;8.88;;;3.63;;
3667;SDS011;24099;47.102;15.440;2022-10-12T08:11:55;6.63;;;2.42;;
3667;SDS011;24099;47.102;15.440;2022-10-12T08:14:24;7.82;;;3.53;;
3667;SDS011;24099;47.102;15.440;2022-10-12T08:16:51;5.25;;;3.47;;
3667;SDS011;24099;47.102;15.440;2022-10-12T08:19:19;5.78;;;3.38;;
3667;SDS011;24099;47.102;15.440;2022-10-12T08:21:47;7.53;;;3.03;;
3667;SDS011;24099;47.102;15.440;2022-10-12T08:24:16;9.88;;;2.95;;
3667;SDS011;24099;47.102;15.440;2022-10-12T08:26:44;4.57;;;2.78;;
3667;SDS011;24099;47.102;15.440;2022-10-12T08:29:12;7.15;;;3.42;;
3667;SDS011;24099;47.102;15.440;2022-10-12T08:31:41;4.47;;;3.17;;
3667;SDS011;24099;47.102;15.440;2022-10-12T08:34:08;6.05;;;3.17;;
3667;SDS011;24099;47.102;15.440;2022-10-12T08:36:36;5.72;;;2.85;;
3667;SDS011;24099;47.102;15.440;2022-10-12T08:39:04;3.28;;;2.28;;
3667;SDS011;24099;47.102;15.440;2022-10-12T08:41:39;4.05;;;2.63;;
3667;SDS011;24099;47.102;15.440;2022-10-12T08:44:23;3.17;;;2.40;;
3667;SDS011;24099;47.102;15.440;2022-10-12T08:47:02;5.35;;;3.08;;
3667;SDS011;24099;47.102;15.440;2022-10-12T08:49:36;4.32;;;2.92;;
3667;SDS011;24099;47.102;15.440;2022-10-12T08:52:05;3.60;;;2.72;;
3667;SDS011;24099;47.102;15.440;2022-10-12T08:54:46;3.40;;;2.60;;
3667;SDS011;24099;47.102;15.440;2022-10-12T08:57:14;4.75;;;2.33;;
3667;SDS011;24099;47.102;15.440;2022-10-12T08:59:43;5.50;;;2.83;;
3667;SDS011;24099;47.102;15.440;2022-10-12T09:02:24;6.60;;;3.00;;
3667;SDS011;24099;47.102;15.440;2022-10-12T09:05:00;3.25;;;2.20;;
3667;SDS011;24099;47.102;15.440;2022-10-12T09:07:33;16.17;;;2.38;;
3667;SDS011;24099;47.102;15.440;2022-10-12T09:10:06;2.08;;;1.77;;
3667;SDS011;24099;47.102;15.440;2022-10-12T09:12:52;2.55;;;2.03;;
3667;SDS011;24099;47.102;15.440;2022-10-12T09:15:27;4.45;;;2.55;;
3667;SDS011;24099;47.102;15.440;2022-10-12T09:17:59;3.63;;;1.95;;
3667;SDS011;24099;47.102;15.440;2022-10-12T09:20:29;3.40;;;2.42;;
3667;SDS011;24099;47.102;15.440;2022-10-12T09:23:00;2.22;;;2.03;;
3667;SDS011;24099;47.102;15.440;2022-10-12T09:25:37;2.97;;;2.22;;
3667;SDS011;24099;47.102;15.440;2022-10-12T09:28:11;3.25;;;2.00;;
3667;SDS011;24099;47.102;15.440;2022-10-12T09:30:45;7.15;;;2.83;;
3667;SDS011;24099;47.102;15.440;2022-10-12T09:33:27;4.97;;;1.95;;
3667;SDS011;24099;47.102;15.440;2022-10-12T09:35:59;1.60;;;1.42;;
3667;SDS011;24099;47.102;15.440;2022-10-12T09:38:27;2.88;;;2.10;;
3667;SDS011;24099;47.102;15.440;2022-10-12T09:40:54;2.20;;;1.95;;
3667;SDS011;24099;47.102;15.440;2022-10-12T09:43:22;4.70;;;2.05;;
3667;SDS011;24099;47.102;15.440;2022-10-12T09:45:50;1.42;;;1.23;;
3667;SDS011;24099;47.102;15.440;2022-10-12T09:48:18;3.05;;;1.98;;
3667;SDS011;24099;47.102;15.440;2022-10-12T09:50:51;3.10;;;1.77;;
3667;SDS011;24099;47.102;15.440;2022-10-12T09:53:26;1.67;;;1.52;;
3667;SDS011;24099;47.102;15.440;2022-10-12T09:55:59;3.05;;;1.45;;
3667;SDS011;24099;47.102;15.440;2022-10-12T09:58:29;3.60;;;2.10;;
3667;SDS011;24099;47.102;15.440;2022-10-12T10:01:16;2.30;;;1.95;;
3667;SDS011;24099;47.102;15.440;2022-10-12T10:03:50;2.03;;;1.70;;
3667;SDS011;24099;47.102;15.440;2022-10-12T10:06:39;2.33;;;1.98;;
3667;SDS011;24099;47.102;15.440;2022-10-12T10:09:25;7.20;;;2.13;;
3667;SDS011;24099;47.102;15.440;2022-10-12T10:11:54;3.05;;;2.22;;
3667;SDS011;24099;47.102;15.440;2022-10-12T10:14:23;1.83;;;1.58;;
3667;SDS011;24099;47.102;15.440;2022-10-12T10:16:51;3.85;;;1.75;;
3667;SDS011;24099;47.102;15.440;2022-10-12T10:19:20;2.45;;;1.98;;
3667;SDS011;24099;47.102;15.440;2022-10-12T10:21:52;1.15;;;1.05;;
3667;SDS011;24099;47.102;15.440;2022-10-12T10:24:23;2.13;;;1.90;;
3667;SDS011;24099;47.102;15.440;2022-10-12T10:26:54;1.23;;;1.13;;
3667;SDS011;24099;47.102;15.440;2022-10-12T10:29:29;2.80;;;1.50;;
3667;SDS011;24099;47.102;15.440;2022-10-12T10:32:15;1.08;;;0.98;;
3667;SDS011;24099;47.102;15.440;2022-10-12T10:35:01;2.20;;;1.30;;
3667;SDS011;24099;47.102;15.440;2022-10-12T10:37:32;2.42;;;1.00;;
3667;SDS011;24099;47.102;15.440;2022-10-12T10:40:00;3.42;;;2.03;;
3667;SDS011;24099;47.102;15.440;2022-10-12T10:42:30;2.08;;;1.20;;
3667;SDS011;24099;47.102;15.440;2022-10-12T10:44:59;2.00;;;1.20;;
3667;SDS011;24099;47.102;15.440;2022-10-12T10:47:31;2.50;;;1.67;;
3667;SDS011;24099;47.102;15.440;2022-10-12T10:50:07;1.07;;;1.00;;
3667;SDS011;24099;47.102;15.440;2022-10-12T10:52:53;0.93;;;0.90;;
3667;SDS011;24099;47.102;15.440;2022-10-12T10:55:24;1.65;;;1.15;;
3667;SDS011;24099;47.102;15.440;2022-10-12T10:58:00;1.73;;;1.33;;
3667;SDS011;24099;47.102;15.440;2022-10-12T11:00:31;3.05;;;1.58;;
3667;SDS011;24099;47.102;15.440;2022-10-12T11:03:04;2.08;;;1.67;;
3667;SDS011;24099;47.102;15.440;2022-10-12T11:05:37;1.10;;;0.93;;
3667;SDS011;24099;47.102;15.440;2022-10-12T11:08:11;1.27;;;1.10;;
3667;SDS011;24099;47.102;15.440;2022-10-12T11:10:43;3.72;;;1.42;;
3667;SDS011;24099;47.102;15.440;2022-10-12T11:13:15;1.58;;;1.48;;
3667;SDS011;24099;47.102;15.440;2022-10-12T11:15:47;2.40;;;0.95;;
3667;SDS011;24099;47.102;15.440;2022-10-12T11:18:20;1.40;;;1.30;;
3667;SDS011;24099;47.102;15.440;2022-10-12T11:20:54;1.38;;;1.25;;
3667;SDS011;24099;47.102;15.440;2022-10-12T11:23:37;4.70;;;1.55;;
3667;SDS011;24099;47.102;15.440;2022-10-12T11:26:11;1.05;;;0.93;;
3667;SDS011;24099;47.102;15.440;2022-10-12T11:28:48;1.30;;;1.20;;
3667;SDS011;24099;47.102;15.440;2022-10-12T11:31:18;1.50;;;1.40;;
3667;SDS011;24099;47.102;15.440;2022-10-12T11:33:50;1.10;;;1.05;;
3667;SDS011;24099;47.102;15.440;2022-10-12T11:36:22;1.33;;;0.90;;
3667;SDS011;24099;47.102;15.440;2022-10-12T11:38:54;2.22;;;1.38;;
3667;SDS011;24099;47.102;15.440;2022-10-12T11:41:28;1.38;;;1.27;;
3667;SDS011;24099;47.102;15.440;2022-10-12T11:44:04;1.15;;;1.05;;
3667;SDS011;24099;47.102;15.440;2022-10-12T11:46:40;1.13;;;1.02;;
3667;SDS011;24099;47.102;15.440;2022-10-12T11:49:14;2.22;;;1.35;;
3667;SDS011;24099;47.102;15.440;2022-10-12T11:51:49;0.80;;;0.80;;
3667;SDS011;24099;47.102;15.440;2022-10-12T11:54:24;1.38;;;1.27;;
3667;SDS011;24099;47.102;15.440;2022-10-12T11:56:59;1.55;;;0.98;;
3667;SDS011;24099;47.102;15.440;2022-10-12T11:59:31;1.15;;;1.00;;
3667;SDS011;24099;47.102;15.440;2022-10-12T12:02:09;1.75;;;1.10;;
3667;SDS011;24099;47.102;15.440;2022-10-12T12:04:43;0.75;;;0.75;;
3667;SDS011;24099;47.102;15.440;2022-10-12T12:13:30;1.02;;;0.75;;
3667;SDS011;24099;47.102;15.440;2022-10-12T12:25:02;0.60;;;0.60;;
3667;SDS011;24099;47.102;15.440;2022-10-12T12:27:43;0.88;;;0.88;;
3667;SDS011;24099;47.102;15.440;2022-10-12T12:30:25;0.75;;;0.70;;
3667;SDS011;24099;47.102;15.440;2022-10-12T12:33:05;2.85;;;0.98;;
3667;SDS011;24099;47.102;15.440;2022-10-12T12:35:53;0.65;;;0.65;;
3667;SDS011;24099;47.102;15.440;2022-10-12T12:38:28;0.93;;;0.93;;
3667;SDS011;24099;47.102;15.440;2022-10-12T12:40:59;0.80;;;0.80;;
3667;SDS011;24099;47.102;15.440;2022-10-12T12:43:37;0.55;;;0.55;;
3667;SDS011;24099;47.102;15.440;2022-10-12T12:49:38;0.98;;;0.98;;
3667;SDS011;24099;47.102;15.440;2022-10-12T12:52:13;0.95;;;0.82;;
3667;SDS011;24099;47.102;15.440;2022-10-12T12:54:53;0.70;;;0.70;;
3667;SDS011;24099;47.102;15.440;2022-10-12T13:00:28;0.60;;;0.60;;
3667;SDS011;24099;47.102;15.440;2022-10-12T13:03:12;0.50;;;0.50;;
3667;SDS011;24099;47.102;15.440;2022-10-12T13:09:14;0.93;;;0.90;;
3667;SDS011;24099;47.102;15.440;2022-10-12T13:12:10;0.63;;;0.63;;
3667;SDS011;24099;47.102;15.440;2022-10-12T13:15:02;0.85;;;0.85;;
3667;SDS011;24099;47.102;15.440;2022-10-12T13:17:48;0.82;;;0.82;;
3667;SDS011;24099;47.102;15.440;2022-10-12T13:20:47;0.60;;;0.60;;
3667;SDS011;24099;47.102;15.440;2022-10-12T13:23:16;1.13;;;1.13;;
3667;SDS011;24099;47.102;15.440;2022-10-12T13:25:47;1.70;;;0.98;;
3667;SDS011;24099;47.102;15.440;2022-10-12T13:28:19;0.82;;;0.82;;
3667;SDS011;24099;47.102;15.440;2022-10-12T13:30:51;0.93;;;0.90;;
3667;SDS011;24099;47.102;15.440;2022-10-12T13:33:24;1.50;;;1.10;;
3667;SDS011;24099;47.102;15.440;2022-10-12T13:35:57;0.90;;;0.90;;
3667;SDS011;24099;47.102;15.440;2022-10-12T13:38:29;1.38;;;0.95;;
3667;SDS011;24099;47.102;15.440;2022-10-12T13:41:02;1.30;;;0.82;;
3667;SDS011;24099;47.102;15.440;2022-10-12T13:43:35;0.77;;;0.77;;
3667;SDS011;24099;47.102;15.440;2022-10-12T13:46:09;0.73;;;0.70;;
3667;SDS011;24099;47.102;15.440;2022-10-12T13:48:40;3.95;;;1.52;;
3667;SDS011;24099;47.102;15.440;2022-10-12T13:51:19;0.68;;;0.68;;
3667;SDS011;24099;47.102;15.440;2022-10-12T13:53:49;1.30;;;1.08;;
3667;SDS011;24099;47.102;15.440;2022-10-12T13:56:18;0.82;;;0.75;;
3667;SDS011;24099;47.102;15.440;2022-10-12T13:58:49;0.88;;;0.88;;
3667;SDS011;24099;47.102;15.440;2022-10-12T14:01:21;0.65;;;0.65;;
3667;SDS011;24099;47.102;15.440;2022-10-12T14:04:00;2.10;;;1.00;;
3667;SDS011;24099;47.102;15.440;2022-10-12T14:06:31;1.05;;;0.95;;
3667;SDS011;24099;47.102;15.440;2022-10-12T14:09:04;0.70;;;0.70;;
3667;SDS011;24099;47.102;15.440;2022-10-12T14:11:34;0.95;;;0.88;;
3667;SDS011;24099;47.102;15.440;2022-10-12T14:14:02;0.98;;;0.77;;
3667;SDS011;24099;47.102;15.440;2022-10-12T14:16:30;0.77;;;0.77;;
3667;SDS011;24099;47.102;15.440;2022-10-12T14:21:46;0.98;;;0.77;;
3667;SDS011;24099;47.102;15.440;2022-10-12T14:24:16;0.77;;;0.77;;
3667;SDS011;24099;47.102;15.440;2022-10-12T14:26:50;0.70;;;0.70;;
3667;SDS011;24099;47.102;15.440;2022-10-12T14:35:18;0.75;;;0.75;;
3667;SDS011;24099;47.102;15.440;2022-10-12T14:37:49;1.70;;;0.80;;
3667;SDS011;24099;47.102;15.440;2022-10-12T14:43:05;1.10;;;0.85;;
3667;SDS011;24099;47.102;15.440;2022-10-12T14:45:48;0.70;;;0.70;;
3667;SDS011;24099;47.102;15.440;2022-10-12T14:48:16;0.50;;;0.50;;
3667;SDS011;24099;47.102;15.440;2022-10-12T14:50:48;1.13;;;0.70;;
3667;SDS011;24099;47.102;15.440;2022-10-12T14:53:16;0.50;;;0.50;;
3667;SDS011;24099;47.102;15.440;2022-10-12T14:55:45;6.03;;;0.98;;
3667;SDS011;24099;47.102;15.440;2022-10-12T14:58:13;0.70;;;0.70;;
3667;SDS011;24099;47.102;15.440;2022-10-12T15:00:44;0.68;;;0.68;;
3667;SDS011;24099;47.102;15.440;2022-10-12T15:03:12;0.88;;;0.77;;
3667;SDS011;24099;47.102;15.440;2022-10-12T15:05:42;0.70;;;0.70;;
3667;SDS011;24099;47.102;15.440;2022-10-12T15:08:11;1.23;;;0.88;;
3667;SDS011;24099;47.102;15.440;2022-10-12T15:10:38;1.17;;;0.90;;
3667;SDS011;24099;47.102;15.440;2022-10-12T15:13:06;13.45;;;1.52;;
3667;SDS011;24099;47.102;15.440;2022-10-12T15:15:37;1.35;;;1.25;;
3667;SDS011;24099;47.102;15.440;2022-10-12T15:18:08;0.85;;;0.82;;
3667;SDS011;24099;47.102;15.440;2022-10-12T15:20:35;1.08;;;0.73;;
3667;SDS011;24099;47.102;15.440;2022-10-12T15:23:03;1.15;;;0.85;;
3667;SDS011;24099;47.102;15.440;2022-10-12T15:25:37;1.38;;;1.10;;
3667;SDS011;24099;47.102;15.440;2022-10-12T15:28:10;3.13;;;1.20;;
3667;SDS011;24099;47.102;15.440;2022-10-12T15:30:37;1.55;;;0.93;;
3667;SDS011;24099;47.102;15.440;2022-10-12T15:33:05;0.73;;;0.73;;
3667;SDS011;24099;47.102;15.440;2022-10-12T15:35:35;1.33;;;1.23;;
3667;SDS011;24099;47.102;15.440;2022-10-12T15:38:02;4.88;;;1.80;;
3667;SDS011;24099;47.102;15.440;2022-10-12T15:40:31;6.05;;;2.58;;
3667;SDS011;24099;47.102;15.440;2022-10-12T15:43:01;4.03;;;1.70;;
3667;SDS011;24099;47.102;15.440;2022-10-12T15:45:30;1.02;;;0.90;;
3667;SDS011;24099;47.102;15.440;2022-10-12T15:47:59;1.38;;;1.17;;
3667;SDS011;24099;47.102;15.440;2022-10-12T15:50:32;1.80;;;1.13;;
3667;SDS011;24099;47.102;15.440;2022-10-12T15:53:02;1.15;;;1.05;;
3667;SDS011;24099;47.102;15.440;2022-10-12T15:55:30;4.57;;;2.20;;